CheckWX is a tool to help pilots better visualize weather data.  It is not intended as a substitute for an official pre-flight weather briefing.

11:13:46 UTC

KY8 METAR
Hancock Co-Ron Lewis Field Airport
Lewisport, Kentucky, USA
Current

19 mins ago

KKY8 241055Z AUTO 00000KT 5SM BR CLR 21/21 A3011 RMK A01
Observed
May-24 @ 10:55 UTC
Visibility
5 SM
Flight Rules
MVFR
Conditions
Mist
Cloud Levels
  • Clear skies
Temperature
21°C / 70°F
Dewpoint
21°C / 70°F
Humidity
100%
Altimeter
30.11" Hg
Pressure
1019.62 hPa
Previous

39 mins ago

KKY8 241035Z AUTO 00000KT 4SM BR CLR 21/21 A3010 RMK A01
Observed
May-24 @ 10:35 UTC
Visibility
4 SM
Flight Rules
MVFR
Conditions
Mist
Cloud Levels
  • Clear skies
Temperature
21°C / 70°F
Dewpoint
21°C / 70°F
Humidity
100%
Altimeter
30.1" Hg
Pressure
1019.32 hPa
Previous

59 mins ago

KKY8 241015Z AUTO 00000KT 4SM BR CLR 21/21 A3010 RMK A01
Observed
May-24 @ 10:15 UTC
Visibility
4 SM
Flight Rules
MVFR
Conditions
Mist
Cloud Levels
  • Clear skies
Temperature
21°C / 70°F
Dewpoint
21°C / 70°F
Humidity
100%
Altimeter
30.1" Hg
Pressure
1019.32 hPa